Time;durP1;ratioP1;P1;durP2;ratioP2;P2;SDS_P1;SDS_P2;PMS_P1;PMS_P2;Temp;Humidity;BMP_temperature;BMP_pressure;BME280_temperature;BME280_humidity;BME280_pressure;Samples;Min_cycle;Max_cycle;Signal;HPM_P1;HPM_P2
2022/06/17 00:01:23;;;;;;;4.37;2.80;;;15.60;1.00;;;;;;5068341;28;20346;-62
2022/06/17 00:03:51;;;;;;;4.13;3.40;;;15.60;1.00;;;;;;5084198;28;20233;-62
2022/06/17 00:06:25;;;;;;;5.87;3.40;;;15.60;1.00;;;;;;5082241;28;20285;-61
2022/06/17 00:08:53;;;;;;;5.53;3.63;;;15.60;1.00;;;;;;5080145;28;20222;-61
2022/06/17 00:11:30;;;;;;;7.00;3.60;;;15.50;1.00;;;;;;5081638;28;20198;-62
2022/06/17 00:13:58;;;;;;;3.93;3.53;;;15.30;1.00;;;;;;5066285;28;20476;-62
2022/06/17 00:16:31;;;;;;;4.87;3.20;;;15.10;1.00;;;;;;5083375;28;20744;-61
2022/06/17 00:18:58;;;;;;;4.00;3.10;;;15.10;1.00;;;;;;5071780;28;20190;-61
2022/06/17 00:21:30;;;;;;;5.33;3.63;;;15.00;1.00;;;;;;5086560;28;20202;-63
2022/06/17 00:23:59;;;;;;;5.97;4.00;;;15.00;1.00;;;;;;5069993;28;20685;-61
2022/06/17 00:26:26;;;;;;;4.77;4.27;;;15.00;1.00;;;;;;5069440;28;20673;-62
2022/06/17 00:28:53;;;;;;;7.20;3.60;;;14.80;1.00;;;;;;5067157;28;20215;-62
2022/06/17 00:31:20;;;;;;;4.70;3.80;;;14.80;1.00;;;;;;5064493;28;20259;-62
2022/06/17 00:33:47;;;;;;;7.13;4.10;;;14.80;1.00;;;;;;5083987;28;20222;-62
2022/06/17 00:36:17;;;;;;;6.03;4.07;;;14.80;1.00;;;;;;5065465;28;20716;-61
2022/06/17 00:38:46;;;;;;;5.03;4.50;;;14.80;1.00;;;;;;5084008;28;20745;-62
2022/06/17 00:41:35;;;;;;;8.13;5.27;;;14.80;1.00;;;;;;5082441;28;20202;-62
2022/06/17 00:44:32;;;;;;;9.13;5.03;;;14.50;49.20;;;;;;5083102;28;20547;-62
2022/06/17 00:47:22;;;;;;;4.73;3.90;;;14.60;70.20;;;;;;5066837;28;20608;-61
2022/06/17 00:50:18;;;;;;;7.93;4.90;;;14.60;66.10;;;;;;5056196;28;20269;-62
2022/06/17 00:52:59;;;;;;;5.57;3.83;;;14.60;83.60;;;;;;5087860;28;20269;-62
2022/06/17 00:55:48;;;;;;;6.73;4.33;;;14.60;76.10;;;;;;5087852;28;20176;-61
2022/06/17 00:58:26;;;;;;;6.13;3.70;;;14.60;75.20;;;;;;5070170;28;20649;-62
2022/06/17 01:00:57;;;;;;;6.20;4.40;;;14.50;99.90;;;;;;5081794;28;20206;-62
2022/06/17 01:03:28;;;;;;;7.07;4.37;;;14.20;99.90;;;;;;5070842;28;20202;-62
2022/06/17 01:06:03;;;;;;;5.57;4.40;;;13.80;99.90;;;;;;5047014;28;20202;-61
2022/06/17 01:11:46;;;;;;;6.53;4.60;;;13.90;99.90;;;;;;5070851;28;20209;-62
2022/06/17 01:14:16;;;;;;;7.27;4.37;;;13.90;99.90;;;;;;5063172;28;20276;-62
2022/06/17 01:16:45;;;;;;;7.67;4.07;;;13.90;99.90;;;;;;5071517;28;20190;-62
2022/06/17 01:19:34;;;;;;;6.10;4.30;;;13.90;99.90;;;;;;5069669;28;20190;-62
2022/06/17 01:22:18;;;;;;;4.67;4.17;;;13.90;99.90;;;;;;5070261;28;20198;-61
2022/06/17 01:24:46;;;;;;;4.57;4.03;;;14.40;99.90;;;;;;5081414;28;20593;-61
2022/06/17 01:27:17;;;;;;;16.90;13.37;;;15.30;87.60;;;;;;5079582;28;20195;-63
2022/06/17 01:29:44;;;;;;;59.10;46.50;;;16.20;1.00;;;;;;5053638;28;20245;-62
2022/06/17 01:32:12;;;;;;;74.90;58.57;;;16.60;1.00;;;;;;5062852;28;20194;-61
2022/06/17 01:34:40;;;;;;;25.90;18.70;;;17.20;1.00;;;;;;5082662;28;20193;-63
2022/06/17 01:37:08;;;;;;;9.45;5.88;;;17.60;99.90;;;;;;5072603;28;20202;-62
2022/06/17 01:39:35;;;;;;;5.53;4.80;;;17.30;99.90;;;;;;5083021;28;20202;-62
2022/06/17 01:42:04;;;;;;;8.68;6.85;;;16.70;1.00;;;;;;5064692;28;20207;-63
2022/06/17 01:44:33;;;;;;;10.68;8.35;;;16.60;1.00;;;;;;5067847;28;20293;-63
2022/06/17 01:47:05;;;;;;;23.73;19.60;;;16.70;1.00;;;;;;5077822;28;20285;-62
2022/06/17 01:49:46;;;;;;;24.38;19.52;;;16.80;1.00;;;;;;5065969;28;20214;-63
2022/06/17 01:52:27;;;;;;;33.75;21.98;;;17.00;1.00;;;;;;5053607;28;20842;-62
2022/06/17 01:54:57;;;;;;;17.83;11.70;;;17.00;1.00;;;;;;5066702;28;20201;-63
2022/06/17 01:57:35;;;;;;;12.95;7.38;;;16.90;1.00;;;;;;5082037;28;20198;-64
2022/06/17 02:00:16;;;;;;;11.07;6.75;;;17.00;1.00;;;;;;5056169;28;20737;-62
2022/06/17 02:02:50;;;;;;;13.45;7.63;;;17.10;1.00;;;;;;5048460;28;20348;-64
2022/06/17 02:05:19;;;;;;;6.05;4.35;;;17.00;1.00;;;;;;5064412;28;20195;-63
2022/06/17 02:08:01;;;;;;;4.07;3.75;;;16.60;1.00;;;;;;5070876;28;20222;-62
2022/06/17 02:10:42;;;;;;;5.20;3.50;;;16.10;1.00;;;;;;5068591;28;20260;-62
2022/06/17 02:13:12;;;;;;;6.47;4.07;;;15.50;1.00;;;;;;5063488;28;20194;-62
2022/06/17 02:16:04;;;;;;;4.77;4.27;;;15.10;1.00;;;;;;5070672;28;20223;-62
2022/06/17 02:18:42;;;;;;;7.77;4.53;;;14.60;1.00;;;;;;5081642;28;20189;-63
2022/06/17 02:21:28;;;;;;;5.00;4.37;;;14.30;96.60;;;;;;5079615;28;20218;-62
2022/06/17 02:23:55;;;;;;;5.63;4.43;;;14.20;99.90;;;;;;5049087;28;20200;-61
2022/06/17 02:26:27;;;;;;;6.70;4.53;;;14.00;99.90;;;;;;5073859;28;20202;-63
2022/06/17 02:28:55;;;;;;;5.70;4.80;;;13.80;99.90;;;;;;5064998;28;20210;-62
2022/06/17 02:31:23;;;;;;;7.27;4.70;;;13.80;99.90;;;;;;5070693;28;20190;-62
2022/06/17 02:33:51;;;;;;;5.30;4.80;;;13.80;99.90;;;;;;5080517;28;20191;-62
2022/06/17 02:36:31;;;;;;;7.23;5.03;;;13.70;99.90;;;;;;5054159;28;20192;-62
2022/06/17 02:39:05;;;;;;;8.57;5.80;;;13.60;99.90;;;;;;5080346;28;20241;-63
2022/06/17 02:41:34;;;;;;;6.40;4.97;;;13.50;99.90;;;;;;5063779;28;20199;-63
2022/06/17 02:44:06;;;;;;;7.57;5.80;;;13.60;99.90;;;;;;5053687;28;20197;-63
2022/06/17 02:46:38;;;;;;;5.33;4.83;;;13.60;99.90;;;;;;5048587;28;20853;-63
2022/06/17 02:49:13;;;;;;;5.97;5.17;;;13.60;99.90;;;;;;5082928;28;20194;-63
2022/06/17 02:51:42;;;;;;;6.10;5.00;;;13.60;99.90;;;;;;5067864;28;20230;-62
2022/06/17 02:54:15;;;;;;;6.33;5.60;;;13.60;99.90;;;;;;5061396;28;20195;-63
2022/06/17 02:56:48;;;;;;;6.63;5.13;;;13.40;99.90;;;;;;5067200;28;20260;-62
2022/06/17 02:59:30;;;;;;;8.47;5.60;;;13.50;99.90;;;;;;5068378;28;21635;-63
2022/06/17 03:02:09;;;;;;;6.53;5.30;;;13.40;99.90;;;;;;5077962;28;20563;-62
2022/06/17 03:04:41;;;;;;;8.83;5.20;;;13.50;99.90;;;;;;5079627;28;20237;-63
2022/06/17 03:07:15;;;;;;;8.00;5.33;;;13.40;99.90;;;;;;5061118;28;20206;-62
2022/06/17 03:09:43;;;;;;;6.63;5.40;;;13.30;1.00;;;;;;5067172;28;20226;-62
2022/06/17 03:12:13;;;;;;;6.23;5.60;;;13.40;1.00;;;;;;5061771;28;20198;-61
2022/06/17 03:14:55;;;;;;;6.90;5.47;;;13.30;1.00;;;;;;5079460;28;20782;-62
2022/06/17 03:17:24;;;;;;;6.67;5.30;;;13.40;1.00;;;;;;5063260;28;20195;-62
2022/06/17 03:19:55;;;;;;;6.33;5.73;;;13.50;99.90;;;;;;5079772;28;20214;-62
2022/06/17 03:22:24;;;;;;;6.33;5.10;;;13.50;99.90;;;;;;5081160;28;20202;-63
2022/06/17 03:25:10;;;;;;;6.10;5.50;;;13.60;99.90;;;;;;5062769;28;20282;-62
2022/06/17 03:27:51;;;;;;;6.20;5.67;;;13.50;99.90;;;;;;5046858;28;20190;-64
2022/06/17 03:30:27;;;;;;;6.67;5.97;;;13.50;99.90;;;;;;5061658;28;20258;-62
2022/06/17 03:33:19;;;;;;;6.33;5.63;;;13.20;1.00;;;;;;5078213;28;20653;-62
2022/06/17 03:35:53;;;;;;;5.87;5.17;;;13.30;1.00;;;;;;5068038;28;20194;-62
2022/06/17 03:38:41;;;;;;;6.90;5.10;;;13.10;1.00;;;;;;5058253;28;20229;-63
2022/06/17 03:41:16;;;;;;;7.40;5.43;;;13.00;1.00;;;;;;5060242;28;20750;-63
2022/06/17 03:44:06;;;;;;;7.00;5.30;;;12.90;1.00;;;;;;5058606;28;20202;-63
2022/06/17 03:47:02;;;;;;;8.10;5.73;;;13.10;1.00;;;;;;5076027;28;20236;-62
2022/06/17 03:49:57;;;;;;;7.23;5.60;;;13.40;1.00;;;;;;5061720;28;20309;-62
2022/06/17 03:52:46;;;;;;;7.50;5.90;;;13.40;99.90;;;;;;5058688;28;20205;-63
2022/06/17 03:55:19;;;;;;;8.70;5.93;;;13.10;1.00;;;;;;5067120;28;20253;-63
2022/06/17 03:57:50;;;;;;;6.13;5.53;;;13.10;1.00;;;;;;5080319;28;20204;-62
2022/06/17 04:00:42;;;;;;;6.87;5.03;;;13.30;1.00;;;;;;5060652;28;20206;-61
2022/06/17 04:03:16;;;;;;;6.93;5.10;;;13.70;99.90;;;;;;5049463;28;20199;-62
2022/06/17 04:05:46;;;;;;;8.17;5.03;;;14.10;99.90;;;;;;5077598;28;20580;-62
2022/06/17 04:08:13;;;;;;;5.50;4.73;;;14.60;99.90;;;;;;5066908;28;20287;-62
2022/06/17 04:10:44;;;;;;;7.40;4.60;;;14.80;1.00;;;;;;5061434;28;20887;-63
2022/06/17 04:13:21;;;;;;;6.50;4.40;;;14.80;1.00;;;;;;5061827;28;20198;-62
2022/06/17 04:16:30;;;;;;;7.30;4.43;;;15.00;1.00;;;;;;5061752;28;20236;-62
2022/06/17 04:19:16;;;;;;;4.27;3.87;;;15.20;1.00;;;;;;5069725;28;20798;-61
2022/06/17 04:21:51;;;;;;;8.43;4.20;;;16.20;1.00;;;;;;5062216;28;20190;-62
2022/06/17 04:24:24;;;;;;;6.25;3.85;;;17.10;1.00;;;;;;5045078;28;20190;-62
2022/06/17 04:27:03;;;;;;;9.35;3.92;;;17.90;99.90;;;;;;5061969;28;20200;-61
2022/06/17 04:29:36;;;;;;;7.80;3.50;;;18.40;99.90;;;;;;5063839;28;20198;-62
2022/06/17 04:32:19;;;;;;;5.50;3.58;;;18.80;99.90;;;;;;5065632;28;20202;-62
2022/06/17 04:34:48;;;;;;;8.70;4.13;;;18.90;99.90;;;;;;5072096;28;20191;-61
2022/06/17 04:37:20;;;;;;;4.35;3.33;;;19.50;99.90;;;;;;5066228;28;20198;-61
2022/06/17 04:40:29;;;;;;;8.65;4.05;;;19.50;99.90;;;;;;5058941;28;20213;-62
2022/06/17 04:43:33;;;;;;;8.25;3.75;;;20.50;99.90;;;;;;5066884;28;20332;-62
2022/06/17 04:46:04;;;;;;;4.90;3.35;;;20.30;99.90;;;;;;5061341;28;20283;-62
2022/06/17 04:48:32;;;;;;;5.88;3.30;;;21.30;99.90;;;;;;5049569;28;20754;-63
2022/06/17 04:51:00;;;;;;;4.32;3.33;;;21.80;99.90;;;;;;5060261;28;20216;-65
2022/06/17 04:53:29;;;;;;;5.45;3.25;;;21.80;99.90;;;;;;5078478;28;20187;-62
2022/06/17 04:56:30;;;;;;;8.75;3.40;;;22.60;99.90;;;;;;5066311;28;20195;-61
2022/06/17 04:59:36;;;;;;;6.35;3.08;;;23.50;99.90;;;;;;5073981;28;20203;-62
2022/06/17 05:02:20;;;;;;;5.72;3.78;;;23.10;99.90;;;;;;5060720;28;20195;-61
2022/06/17 05:04:59;;;;;;;5.03;2.97;;;21.90;99.90;;;;;;5060586;28;20236;-62
2022/06/17 05:07:30;;;;;;;5.47;3.35;;;22.40;99.90;;;;;;5062087;28;20243;-62
2022/06/17 05:10:35;;;;;;;5.32;3.15;;;20.90;99.90;;;;;;5068459;28;20229;-62
2022/06/17 05:13:09;;;;;;;7.93;4.18;;;20.80;99.90;;;;;;5050255;28;20194;-61
2022/06/17 05:15:37;;;;;;;10.10;3.83;;;20.30;99.90;;;;;;5082752;28;20208;-61
2022/06/17 05:18:04;;;;;;;4.78;3.47;;;20.10;99.90;;;;;;5056104;28;20204;-63
2022/06/17 05:20:31;;;;;;;4.88;3.65;;;20.50;99.90;;;;;;5049273;28;20206;-62
2022/06/17 05:23:05;;;;;;;4.53;3.67;;;20.60;99.90;;;;;;5062033;28;20210;-62
2022/06/17 05:25:41;;;;;;;5.65;3.72;;;21.80;99.90;;;;;;5076424;28;20318;-62
2022/06/17 05:28:14;;;;;;;4.20;3.13;;;23.10;99.90;;;;;;5081080;28;20263;-61
2022/06/17 05:30:53;;;;;;;8.07;3.55;;;24.00;99.90;;;;;;5071050;28;20207;-62
2022/06/17 05:33:31;;;;;;;4.35;3.13;;;24.90;99.90;;;;;;5048742;28;20575;-61
2022/06/17 05:35:59;;;;;;;7.07;3.58;;;25.40;99.90;;;;;;5071302;28;20807;-62
2022/06/17 05:38:26;;;;;;;5.68;3.60;;;23.80;99.90;;;;;;5070189;28;20249;-61
2022/06/17 05:40:53;;;;;;;6.40;3.85;;;;;;;;;;5045981;28;20606;-61
2022/06/17 05:43:21;;;;;;;5.15;3.53;;;23.50;99.90;;;;;;5065002;28;20256;-62
2022/06/17 05:45:48;;;;;;;4.13;3.55;;;23.30;99.90;;;;;;5060091;28;20205;-62
2022/06/17 05:48:30;;;;;;;8.82;3.40;;;23.30;99.90;;;;;;5066564;28;20197;-61
2022/06/17 05:51:03;;;;;;;4.47;3.20;;;23.70;99.90;;;;;;5080018;28;22661;-61
2022/06/17 05:53:53;;;;;;;6.40;3.80;;;24.50;99.90;;;;;;5068481;28;20319;-61
2022/06/17 05:56:44;;;;;;;6.45;4.20;;;22.30;99.90;;;;;;5070872;28;20309;-60
2022/06/17 05:59:12;;;;;;;8.88;4.28;;;20.60;99.90;;;;;;5063861;28;20223;-61
2022/06/17 06:01:39;;;;;;;9.85;4.57;;;19.90;99.90;;;;;;5052997;28;20198;-61
2022/06/17 06:04:07;;;;;;;6.70;4.60;;;19.30;99.90;;;;;;5061672;28;20694;-61
2022/06/17 06:06:35;;;;;;;7.50;4.50;;;19.00;99.90;;;;;;5061900;28;20670;-61
2022/06/17 06:09:02;;;;;;;9.15;4.22;;;19.80;99.90;;;;;;5077871;28;20476;-61
2022/06/17 06:11:30;;;;;;;6.40;3.95;;;23.70;99.90;;;;;;5060935;28;20214;-61
2022/06/17 06:13:57;;;;;;;6.85;3.00;;;23.60;99.90;;;;;;5058759;28;20199;-62
2022/06/17 06:16:24;;;;;;;6.32;3.63;;;26.60;99.90;;;;;;5067810;28;20198;-62
2022/06/17 06:19:01;;;;;;;6.15;3.67;;;;;;;;;;5077862;28;20259;-62
2022/06/17 06:21:30;;;;;;;7.18;4.32;;;21.00;99.90;;;;;;5045667;28;20226;-62
2022/06/17 06:23:59;;;;;;;6.55;4.00;;;21.10;99.90;;;;;;5060305;28;20277;-62
2022/06/17 06:26:31;;;;;;;8.48;4.30;;;24.20;99.90;;;;;;5061781;28;20213;-62
2022/06/17 06:29:22;;;;;;;6.55;4.57;;;24.00;99.90;;;;;;5060861;28;20287;-62
2022/06/17 06:31:49;;;;;;;6.15;4.00;;;25.80;99.90;;;;;;5053360;28;20238;-61
2022/06/17 06:34:36;;;;;;;6.53;4.00;;;25.00;99.90;;;;;;5067736;28;20202;-62
2022/06/17 06:37:04;;;;;;;4.90;2.90;;;24.20;99.90;;;;;;5069571;28;20217;-62
2022/06/17 06:39:32;;;;;;;6.57;4.32;;;24.30;99.90;;;;;;5058168;28;20297;-62
2022/06/17 06:42:00;;;;;;;9.07;3.63;;;24.40;99.90;;;;;;5058522;28;20230;-62
2022/06/17 06:44:29;;;;;;;4.85;3.22;;;25.50;99.90;;;;;;5062402;28;20203;-62
2022/06/17 06:46:56;;;;;;;6.13;3.63;;;25.50;99.90;;;;;;5080315;28;20206;-62
2022/06/17 06:49:33;;;;;;;6.32;3.42;;;25.10;99.90;;;;;;5053819;28;20304;-62
2022/06/17 06:52:00;;;;;;;4.55;3.97;;;24.60;99.90;;;;;;5046071;28;20789;-61
2022/06/17 06:54:27;;;;;;;5.40;3.72;;;24.00;99.90;;;;;;5077295;28;20202;-61
2022/06/17 06:56:55;;;;;;;4.18;3.50;;;25.50;99.90;;;;;;5081831;28;20255;-60
2022/06/17 06:59:42;;;;;;;6.78;3.40;;;26.30;99.90;;;;;;5079992;28;20215;-61
2022/06/17 07:02:09;;;;;;;5.35;3.58;;;29.60;99.90;;;;;;5047712;28;20187;-61
2022/06/17 07:04:37;;;;;;;5.32;3.35;;;30.10;99.90;;;;;;5060766;28;20597;-62
2022/06/17 07:07:05;;;;;;;7.60;3.35;;;30.30;99.90;;;;;;5078557;28;20195;-62
2022/06/17 07:09:33;;;;;;;12.27;2.60;;;29.30;99.90;;;;;;5074779;28;20245;-62
2022/06/17 07:12:00;;;;;;;4.93;2.95;;;33.00;99.90;;;;;;5060730;28;20207;-62
2022/06/17 07:14:28;;;;;;;4.63;2.90;;;34.40;99.90;;;;;;5060903;28;20203;-62
2022/06/17 07:16:55;;;;;;;7.07;3.13;;;32.90;95.50;;;;;;5061438;28;20190;-62
2022/06/17 07:19:22;;;;;;;10.52;3.20;;;29.40;97.70;;;;;;5050082;28;20724;-62
2022/06/17 07:21:51;;;;;;;6.38;2.90;;;30.40;95.90;;;;;;5065443;28;20203;-62
2022/06/17 07:24:18;;;;;;;5.78;3.20;;;29.10;99.10;;;;;;5058904;28;20253;-62
2022/06/17 07:26:45;;;;;;;6.63;2.90;;;29.80;98.30;;;;;;5057519;28;20275;-61
2022/06/17 07:29:13;;;;;;;4.38;2.30;;;27.90;96.40;;;;;;5060721;28;20201;-61
2022/06/17 07:31:41;;;;;;;3.83;2.70;;;29.80;97.30;;;;;;5048822;28;20206;-61
2022/06/17 07:34:08;;;;;;;7.45;2.90;;;29.10;96.00;;;;;;5062507;28;20215;-61
2022/06/17 07:42:14;;;;;;;4.50;3.10;;;26.50;99.90;;;;;;5056942;28;20192;-61
2022/06/17 07:44:41;;;;;;;4.72;2.70;;;24.90;99.90;;;;;;5056135;28;20269;-61
2022/06/17 07:47:14;;;;;;;5.22;3.00;;;24.40;99.90;;;;;;5045727;28;20581;-61
2022/06/17 07:49:42;;;;;;;5.40;3.10;;;24.40;99.90;;;;;;5057303;28;20190;-61
2022/06/17 07:52:09;;;;;;;5.85;2.80;;;24.60;99.90;;;;;;5055588;28;20222;-62
2022/06/17 07:54:36;;;;;;;6.50;3.20;;;25.00;99.90;;;;;;5055747;28;20721;-62
2022/06/17 07:57:04;;;;;;;6.13;2.95;;;24.20;99.90;;;;;;5060213;28;20248;-61
2022/06/17 07:59:31;;;;;;;9.00;3.70;;;23.40;99.90;;;;;;5061578;28;20194;-61
2022/06/17 08:01:58;;;;;;;7.13;2.97;;;23.20;99.90;;;;;;5060312;28;20412;-62
2022/06/17 08:04:25;;;;;;;5.10;3.03;;;24.20;99.90;;;;;;5063358;28;20194;-62
2022/06/17 08:06:52;;;;;;;5.63;3.00;;;24.20;99.90;;;;;;5063203;28;20195;-61
2022/06/17 08:09:26;;;;;;;6.05;3.25;;;24.20;99.90;;;;;;5076601;28;20289;-61
2022/06/17 08:11:53;;;;;;;5.45;3.47;;;24.50;99.90;;;;;;5081017;28;20218;-61
2022/06/17 08:14:21;;;;;;;11.32;3.03;;;25.70;99.90;;;;;;5079394;28;20195;-63
2022/06/17 08:16:48;;;;;;;4.55;2.90;;;25.30;99.90;;;;;;5079797;28;20572;-60
2022/06/17 08:19:15;;;;;;;8.02;3.00;;;25.50;99.90;;;;;;5079304;28;20590;-62
2022/06/17 08:21:45;;;;;;;5.28;2.53;;;26.20;99.90;;;;;;5062277;28;20210;-62
2022/06/17 08:24:25;;;;;;;4.45;2.63;;;;;;;;;;5072662;28;20281;-61
2022/06/17 08:26:52;;;;;;;8.02;3.28;;;26.70;99.90;;;;;;5072023;28;20186;-62
2022/06/17 08:29:20;;;;;;;10.45;2.80;;;28.80;99.90;;;;;;5081681;28;20191;-61
2022/06/17 08:34:53;;;;;;;8.38;2.28;;;31.50;99.90;;;;;;5084723;28;20244;-62
2022/06/17 08:37:20;;;;;;;3.28;2.15;;;32.90;99.90;;;;;;5082998;28;20189;-62
2022/06/17 08:39:49;;;;;;;4.93;2.67;;;33.50;95.70;;;;;;5073549;28;20195;-63
2022/06/17 08:42:43;;;;;;;2.80;2.30;;;32.70;99.90;;;;;;5084268;28;20230;-62
2022/06/17 08:45:35;;;;;;;4.32;2.10;;;33.50;90.40;;;;;;5035621;28;20206;-62
2022/06/17 08:48:11;;;;;;;5.85;2.10;;;33.60;98.10;;;;;;5081358;28;20237;-62
2022/06/17 08:51:00;;;;;;;4.82;1.98;;;32.30;96.40;;;;;;5068386;28;20198;-61
2022/06/17 08:53:52;;;;;;;7.00;1.80;;;31.70;86.40;;;;;;5085106;28;20677;-62
2022/06/17 08:56:31;;;;;;;5.57;2.10;;;30.40;75.00;;;;;;5082784;28;20191;-61
2022/06/17 08:59:22;;;;;;;6.85;2.40;;;29.60;76.20;;;;;;5083106;28;20610;-61
2022/06/17 09:02:19;;;;;;;7.03;2.47;;;29.70;93.60;;;;;;5066576;28;20256;-62
2022/06/17 09:05:14;;;;;;;3.38;2.20;;;29.60;93.50;;;;;;5056430;28;20198;-62
2022/06/17 09:08:03;;;;;;;4.07;2.00;;;28.40;74.10;;;;;;5083755;28;20588;-62
2022/06/17 09:10:57;;;;;;;3.72;2.10;;;30.30;80.80;;;;;;5082727;28;20198;-61
2022/06/17 09:13:46;;;;;;;7.60;2.10;;;29.80;75.70;;;;;;5066503;28;20537;-62
2022/06/17 09:16:31;;;;;;;5.53;2.13;;;30.50;76.50;;;;;;5079822;28;20610;-62
2022/06/17 09:19:02;;;;;;;5.95;2.00;;;29.50;90.20;;;;;;5078953;28;20199;-62
2022/06/17 09:22:00;;;;;;;3.70;1.88;;;31.10;77.70;;;;;;5063138;28;20225;-62
2022/06/17 09:24:37;;;;;;;4.30;2.22;;;30.10;85.90;;;;;;5035537;28;20206;-61
2022/06/17 09:27:08;;;;;;;4.28;1.88;;;29.20;65.80;;;;;;5083539;28;20197;-61
2022/06/17 09:29:58;;;;;;;4.00;2.00;;;30.20;91.40;;;;;;5072981;28;20280;-62
2022/06/17 09:32:36;;;;;;;2.78;1.75;;;29.30;80.90;;;;;;5082504;28;20245;-62
2022/06/17 09:35:27;;;;;;;2.72;1.80;;;29.90;83.20;;;;;;5091082;28;20236;-61
2022/06/17 09:38:00;;;;;;;2.53;1.63;;;31.40;63.00;;;;;;5056913;28;20577;-62
2022/06/17 09:40:38;;;;;;;5.65;1.90;;;30.50;81.80;;;;;;5066345;28;20201;-61
2022/06/17 09:43:08;;;;;;;4.53;1.60;;;34.00;68.00;;;;;;5066432;28;20190;-61
2022/06/17 09:46:05;;;;;;;3.42;1.70;;;34.10;88.60;;;;;;5080731;28;20198;-61
2022/06/17 09:48:54;;;;;;;2.60;1.40;;;34.10;59.80;;;;;;5067537;28;20256;-62
2022/06/17 09:53:43;;;;;;;2.78;1.63;;;35.00;56.40;;;;;;5111674;27;20529;-62
2022/06/17 09:56:16;;;;;;;4.68;2.00;;;32.40;74.10;;;;;;5112963;28;20208;-60
2022/06/17 09:59:01;;;;;;;4.95;1.90;;;31.50;73.10;;;;;;5095224;28;20207;-61
2022/06/17 10:01:29;;;;;;;3.58;1.98;;;30.20;65.90;;;;;;5116493;28;20205;-62
2022/06/17 10:03:56;;;;;;;5.22;1.90;;;30.10;67.10;;;;;;5102124;28;20625;-62
2022/06/17 10:06:34;;;;;;;4.25;1.50;;;29.00;68.00;;;;;;5117494;28;20272;-62
2022/06/17 10:09:01;;;;;;;2.88;1.48;;;30.70;90.30;;;;;;5116828;28;20687;-61
2022/06/17 10:11:40;;;;;;;1.92;1.50;;;29.80;67.80;;;;;;5113091;28;20558;-61
2022/06/17 10:14:16;;;;;;;2.80;1.60;;;28.40;67.60;;;;;;5115767;28;20193;-62
2022/06/17 10:19:36;;;;;;;5.82;1.50;;;30.00;64.60;;;;;;5111653;28;20189;-62
2022/06/17 10:22:22;;;;;;;4.72;1.45;;;30.30;71.20;;;;;;5090192;28;20209;-62
2022/06/17 10:24:58;;;;;;;2.38;1.55;;;30.40;66.10;;;;;;5079838;28;20189;-62
2022/06/17 10:27:46;;;;;;;2.03;1.30;;;29.70;62.50;;;;;;5115531;28;20223;-61
2022/06/17 10:30:29;;;;;;;2.08;1.50;;;31.30;69.80;;;;;;5115578;28;20221;-61
2022/06/17 10:32:56;;;;;;;4.00;1.42;;;30.50;71.60;;;;;;5094828;28;20221;-62
2022/06/17 10:35:31;;;;;;;4.50;1.65;;;31.40;67.80;;;;;;5092966;28;20220;-62
2022/06/17 10:38:03;;;;;;;4.18;1.80;;;30.50;66.60;;;;;;5102651;28;20222;-61
2022/06/17 10:40:36;;;;;;;2.20;1.40;;;32.10;67.60;;;;;;5057819;28;20697;-62
2022/06/17 10:43:09;;;;;;;3.80;1.55;;;31.40;87.10;;;;;;5075451;28;20195;-62
2022/06/17 10:45:36;;;;;;;3.22;1.40;;;32.00;64.40;;;;;;5077278;28;20206;-62
2022/06/17 10:48:24;;;;;;;3.20;1.40;;;30.90;67.30;;;;;;5067187;28;20198;-62
2022/06/17 10:50:51;;;;;;;3.25;1.38;;;29.40;63.90;;;;;;5067967;28;20194;-61
2022/06/17 10:53:18;;;;;;;1.92;1.30;;;28.80;64.90;;;;;;5057341;28;20214;-62
2022/06/17 10:55:49;;;;;;;2.88;1.60;;;29.00;63.90;;;;;;5022835;28;20600;-62
2022/06/17 10:58:23;;;;;;;4.00;1.45;;;28.90;65.00;;;;;;5033267;28;20197;-63
2022/06/17 11:01:11;;;;;;;3.15;1.83;;;29.30;69.10;;;;;;5057124;28;20709;-61
2022/06/17 11:03:48;;;;;;;2.33;1.67;;;29.40;66.90;;;;;;5030437;28;20855;-62
2022/06/17 11:06:19;;;;;;;2.25;1.50;;;30.50;69.60;;;;;;5035471;28;20693;-61
2022/06/17 11:08:49;;;;;;;2.33;1.40;;;30.50;64.60;;;;;;5035577;28;20183;-62
2022/06/17 11:14:24;;;;;;;3.47;1.27;;;30.60;68.70;;;;;;5028872;28;20223;-62
2022/06/17 11:16:51;;;;;;;4.90;1.38;;;30.40;64.20;;;;;;5029515;28;20227;-62
2022/06/17 11:19:23;;;;;;;2.35;1.58;;;30.60;61.70;;;;;;5043640;28;20196;-62
2022/06/17 11:21:57;;;;;;;2.17;1.60;;;31.20;63.70;;;;;;5044644;28;20207;-62
2022/06/17 11:24:38;;;;;;;3.05;1.65;;;32.20;65.20;;;;;;5024730;28;20207;-63
2022/06/17 11:27:14;;;;;;;3.92;1.40;;;32.70;62.30;;;;;;5014401;28;20225;-62
2022/06/17 11:29:47;;;;;;;3.65;1.40;;;33.00;60.70;;;;;;5023917;28;20308;-62
2022/06/17 11:32:20;;;;;;;1.95;1.40;;;32.10;57.90;;;;;;5041005;28;20216;-62
2022/06/17 11:35:16;;;;;;;3.40;1.30;;;31.20;56.40;;;;;;5042189;28;20184;-62
2022/06/17 11:37:47;;;;;;;2.38;1.38;;;31.80;60.10;;;;;;5022577;28;20220;-62
2022/06/17 11:40:20;;;;;;;1.40;1.30;;;32.40;61.90;;;;;;5039647;28;20188;-63
2022/06/17 11:42:52;;;;;;;2.72;1.33;;;33.20;62.30;;;;;;5043058;28;20195;-61
2022/06/17 11:45:44;;;;;;;5.60;1.38;;;32.60;59.60;;;;;;5043165;28;20226;-63
2022/06/17 11:48:20;;;;;;;4.45;1.38;;;31.00;58.10;;;;;;5042621;28;20199;-61
2022/06/17 11:51:10;;;;;;;4.18;1.70;;;30.10;56.00;;;;;;5039445;28;20219;-61
2022/06/17 11:53:59;;;;;;;2.47;1.17;;;31.00;58.90;;;;;;5041023;28;20211;-62
2022/06/17 11:56:47;;;;;;;2.08;1.33;;;32.10;58.90;;;;;;5008674;28;20203;-62
2022/06/17 11:59:18;;;;;;;2.55;1.42;;;32.00;58.00;;;;;;5041402;28;20196;-62
2022/06/17 12:01:54;;;;;;;3.95;1.35;;;31.30;57.10;;;;;;5039761;28;20196;-61
2022/06/17 12:04:30;;;;;;;3.92;1.70;;;31.60;60.30;;;;;;5042345;28;20204;-63
2022/06/17 12:06:57;;;;;;;2.38;1.40;;;32.40;60.20;;;;;;5041141;28;20468;-62
2022/06/17 12:09:36;;;;;;;2.70;1.38;;;33.10;60.30;;;;;;5042151;28;20196;-63
2022/06/17 12:12:10;;;;;;;3.58;1.88;;;33.10;59.30;;;;;;5040587;28;20291;-62
2022/06/17 12:15:08;;;;;;;4.93;1.70;;;32.20;54.30;;;;;;5030699;28;20196;-63
2022/06/17 12:17:40;;;;;;;2.08;1.42;;;31.50;58.50;;;;;;5041658;28;20204;-63
2022/06/17 12:20:31;;;;;;;6.22;1.95;;;32.80;59.70;;;;;;5042703;28;20200;-61
2022/06/17 12:23:09;;;;;;;4.63;1.52;;;33.00;60.10;;;;;;5031162;28;20216;-61
2022/06/17 12:25:36;;;;;;;10.05;1.88;;;32.30;59.70;;;;;;5038478;28;20237;-61
2022/06/17 12:31:48;;;;;;;10.98;1.60;;;32.50;59.30;;;;;;5017446;28;20211;-62
2022/06/17 12:34:18;;;;;;;3.50;1.63;;;31.80;57.70;;;;;;5025470;28;20220;-63
2022/06/17 12:37:16;;;;;;;2.28;1.67;;;30.60;55.30;;;;;;5028070;28;20200;-62
2022/06/17 12:40:06;;;;;;;5.15;1.73;;;30.30;58.30;;;;;;5020972;28;20949;-62
2022/06/17 12:43:06;;;;;;;2.85;1.80;;;30.40;56.90;;;;;;5008137;28;20208;-62
2022/06/17 12:45:44;;;;;;;4.15;1.50;;;30.80;59.50;;;;;;5040216;28;20200;-63
2022/06/17 12:48:22;;;;;;;4.00;2.38;;;31.20;58.20;;;;;;5031805;28;20208;-62
2022/06/17 12:53:49;;;;;;;6.28;3.42;;;33.10;60.30;;;;;;5039581;28;20270;-62
2022/06/17 12:56:39;;;;;;;6.22;5.38;;;32.60;58.70;;;;;;5040989;28;20187;-62
2022/06/17 12:59:22;;;;;;;9.02;5.30;;;32.80;59.50;;;;;;5037779;28;20218;-62
2022/06/17 13:01:58;;;;;;;4.53;3.13;;;32.90;59.20;;;;;;5006140;28;20204;-62
2022/06/17 13:04:58;;;;;;;5.97;3.20;;;33.00;58.90;;;;;;5018406;28;20195;-63
2022/06/17 13:07:34;;;;;;;5.20;2.75;;;32.70;60.30;;;;;;5030792;28;20278;-62
2022/06/17 13:10:42;;;;;;;4.20;1.77;;;32.00;60.20;;;;;;5022383;28;20254;-62
2022/06/17 13:13:28;;;;;;;3.28;1.50;;;31.40;56.60;;;;;;5030080;28;20262;-62
2022/06/17 13:16:09;;;;;;;2.95;1.50;;;29.40;54.50;;;;;;5022176;28;20340;-65
2022/06/17 13:18:48;;;;;;;3.85;1.70;;;29.30;57.50;;;;;;5037623;28;20693;-63
2022/06/17 13:21:33;;;;;;;3.58;1.65;;;28.90;56.40;;;;;;5028277;28;20206;-63
2022/06/17 13:24:17;;;;;;;3.10;1.90;;;29.30;60.60;;;;;;5002155;28;20261;-64
2022/06/17 13:27:15;;;;;;;4.50;1.50;;;29.20;61.00;;;;;;5046770;28;20639;-64
2022/06/17 13:29:50;;;;;;;3.35;1.73;;;27.60;57.60;;;;;;5038823;28;20192;-63
2022/06/17 13:32:22;;;;;;;4.88;1.63;;;29.40;57.40;;;;;;5022634;28;20254;-62
2022/06/17 13:35:03;;;;;;;1.83;1.40;;;29.30;56.80;;;;;;5030031;28;20195;-62
2022/06/17 13:37:34;;;;;;;4.20;1.58;;;29.50;57.50;;;;;;5045734;28;20186;-62
2022/06/17 13:40:12;;;;;;;3.05;2.55;;;30.10;57.50;;;;;;5044416;28;20235;-62
2022/06/17 13:42:41;;;;;;;3.92;1.73;;;30.40;80.60;;;;;;5042105;28;20187;-63
2022/06/17 13:45:17;;;;;;;5.22;1.30;;;30.00;54.70;;;;;;5048138;28;20195;-62
2022/06/17 13:47:50;;;;;;;4.05;1.80;;;29.70;53.30;;;;;;5040188;28;20221;-62
2022/06/17 13:50:20;;;;;;;2.00;1.40;;;29.60;51.90;;;;;;5035415;28;20242;-63
2022/06/17 13:53:04;;;;;;;6.18;1.92;;;29.80;56.30;;;;;;5040236;28;20584;-63
2022/06/17 13:55:37;;;;;;;2.85;1.60;;;29.70;66.90;;;;;;5031136;28;20212;-63
2022/06/17 13:58:13;;;;;;;1.25;1.00;;;29.80;54.70;;;;;;5038973;28;20192;-62
2022/06/17 14:00:48;;;;;;;2.95;1.38;;;29.10;51.50;;;;;;5039444;28;20965;-63